sensor_id;sensor_type;location;lat;lon;timestamp;P1;durP1;ratioP1;P2;durP2;ratioP2
21233;SDS011;10774;42.178;26.578;2022-09-01T00:01:38;12.85;;;6.57;;
21233;SDS011;10774;42.178;26.578;2022-09-01T00:04:06;11.85;;;6.18;;
21233;SDS011;10774;42.178;26.578;2022-09-01T00:06:40;13.98;;;5.90;;
21233;SDS011;10774;42.178;26.578;2022-09-01T00:09:11;12.43;;;6.45;;
21233;SDS011;10774;42.178;26.578;2022-09-01T00:11:39;10.15;;;6.30;;
21233;SDS011;10774;42.178;26.578;2022-09-01T00:14:06;11.43;;;6.32;;
21233;SDS011;10774;42.178;26.578;2022-09-01T00:16:33;10.93;;;5.93;;
21233;SDS011;10774;42.178;26.578;2022-09-01T00:19:00;10.13;;;6.10;;
21233;SDS011;10774;42.178;26.578;2022-09-01T00:21:28;15.07;;;6.43;;
21233;SDS011;10774;42.178;26.578;2022-09-01T00:23:55;10.85;;;6.63;;
21233;SDS011;10774;42.178;26.578;2022-09-01T00:26:21;14.38;;;6.35;;
21233;SDS011;10774;42.178;26.578;2022-09-01T00:28:46;10.30;;;6.03;;
21233;SDS011;10774;42.178;26.578;2022-09-01T00:31:12;10.30;;;6.20;;
21233;SDS011;10774;42.178;26.578;2022-09-01T00:33:39;13.07;;;6.45;;
21233;SDS011;10774;42.178;26.578;2022-09-01T00:36:05;11.73;;;6.55;;
21233;SDS011;10774;42.178;26.578;2022-09-01T00:38:31;11.25;;;6.18;;
21233;SDS011;10774;42.178;26.578;2022-09-01T00:40:57;12.98;;;6.65;;
21233;SDS011;10774;42.178;26.578;2022-09-01T00:43:44;11.05;;;6.22;;
21233;SDS011;10774;42.178;26.578;2022-09-01T00:46:18;9.60;;;6.25;;
21233;SDS011;10774;42.178;26.578;2022-09-01T00:48:47;10.43;;;6.78;;
21233;SDS011;10774;42.178;26.578;2022-09-01T00:51:17;14.13;;;6.43;;
21233;SDS011;10774;42.178;26.578;2022-09-01T00:53:42;10.13;;;6.38;;
21233;SDS011;10774;42.178;26.578;2022-09-01T00:56:10;11.55;;;6.10;;
21233;SDS011;10774;42.178;26.578;2022-09-01T00:58:37;10.15;;;6.35;;
21233;SDS011;10774;42.178;26.578;2022-09-01T01:03:52;10.05;;;6.10;;
21233;SDS011;10774;42.178;26.578;2022-09-01T01:06:17;12.30;;;6.90;;
21233;SDS011;10774;42.178;26.578;2022-09-01T01:08:48;11.30;;;6.47;;
21233;SDS011;10774;42.178;26.578;2022-09-01T01:11:26;11.25;;;6.13;;
21233;SDS011;10774;42.178;26.578;2022-09-01T01:14:05;10.85;;;6.20;;
21233;SDS011;10774;42.178;26.578;2022-09-01T01:16:40;16.40;;;6.38;;
21233;SDS011;10774;42.178;26.578;2022-09-01T01:19:12;11.25;;;6.30;;
21233;SDS011;10774;42.178;26.578;2022-09-01T01:22:05;13.38;;;6.90;;
21233;SDS011;10774;42.178;26.578;2022-09-01T01:24:55;11.07;;;6.90;;
21233;SDS011;10774;42.178;26.578;2022-09-01T01:27:21;11.02;;;7.00;;
21233;SDS011;10774;42.178;26.578;2022-09-01T01:29:46;14.32;;;6.65;;
21233;SDS011;10774;42.178;26.578;2022-09-01T01:32:16;10.65;;;6.70;;
21233;SDS011;10774;42.178;26.578;2022-09-01T01:34:42;10.48;;;6.93;;
21233;SDS011;10774;42.178;26.578;2022-09-01T01:37:09;13.65;;;6.63;;
21233;SDS011;10774;42.178;26.578;2022-09-01T01:39:38;14.73;;;7.03;;
21233;SDS011;10774;42.178;26.578;2022-09-01T01:42:06;15.40;;;6.95;;
21233;SDS011;10774;42.178;26.578;2022-09-01T01:44:34;11.52;;;7.35;;
21233;SDS011;10774;42.178;26.578;2022-09-01T01:47:01;10.07;;;6.90;;
21233;SDS011;10774;42.178;26.578;2022-09-01T01:49:32;15.10;;;7.75;;
21233;SDS011;10774;42.178;26.578;2022-09-01T01:51:59;12.73;;;7.10;;
21233;SDS011;10774;42.178;26.578;2022-09-01T01:54:25;9.73;;;6.90;;
21233;SDS011;10774;42.178;26.578;2022-09-01T01:56:53;9.80;;;7.25;;
21233;SDS011;10774;42.178;26.578;2022-09-01T01:59:19;12.02;;;6.80;;
21233;SDS011;10774;42.178;26.578;2022-09-01T02:01:49;10.75;;;7.10;;
21233;SDS011;10774;42.178;26.578;2022-09-01T02:04:15;11.80;;;7.65;;
21233;SDS011;10774;42.178;26.578;2022-09-01T02:06:42;10.13;;;6.50;;
21233;SDS011;10774;42.178;26.578;2022-09-01T02:09:13;14.02;;;6.53;;
21233;SDS011;10774;42.178;26.578;2022-09-01T02:11:40;13.82;;;7.05;;
21233;SDS011;10774;42.178;26.578;2022-09-01T02:14:06;8.95;;;6.45;;
21233;SDS011;10774;42.178;26.578;2022-09-01T02:16:34;9.75;;;6.85;;
21233;SDS011;10774;42.178;26.578;2022-09-01T02:19:01;12.07;;;6.50;;
21233;SDS011;10774;42.178;26.578;2022-09-01T02:21:28;10.90;;;7.43;;
21233;SDS011;10774;42.178;26.578;2022-09-01T02:24:01;11.32;;;6.93;;
21233;SDS011;10774;42.178;26.578;2022-09-01T02:26:30;14.95;;;7.47;;
21233;SDS011;10774;42.178;26.578;2022-09-01T02:28:58;11.05;;;6.72;;
21233;SDS011;10774;42.178;26.578;2022-09-01T02:31:28;42.17;;;9.07;;
21233;SDS011;10774;42.178;26.578;2022-09-01T02:33:56;15.20;;;6.90;;
21233;SDS011;10774;42.178;26.578;2022-09-01T02:36:22;14.45;;;6.68;;
21233;SDS011;10774;42.178;26.578;2022-09-01T02:38:49;10.20;;;6.75;;
21233;SDS011;10774;42.178;26.578;2022-09-01T02:41:17;12.80;;;6.72;;
21233;SDS011;10774;42.178;26.578;2022-09-01T02:43:44;11.43;;;6.63;;
21233;SDS011;10774;42.178;26.578;2022-09-01T02:46:10;11.52;;;6.78;;
21233;SDS011;10774;42.178;26.578;2022-09-01T02:48:38;10.02;;;6.95;;
21233;SDS011;10774;42.178;26.578;2022-09-01T02:51:06;11.82;;;7.20;;
21233;SDS011;10774;42.178;26.578;2022-09-01T02:53:34;11.85;;;6.20;;
21233;SDS011;10774;42.178;26.578;2022-09-01T02:56:00;8.70;;;6.65;;
21233;SDS011;10774;42.178;26.578;2022-09-01T02:58:28;12.82;;;8.02;;
21233;SDS011;10774;42.178;26.578;2022-09-01T03:00:57;12.15;;;7.90;;
21233;SDS011;10774;42.178;26.578;2022-09-01T03:03:23;14.93;;;7.78;;
21233;SDS011;10774;42.178;26.578;2022-09-01T03:05:52;11.68;;;6.53;;
21233;SDS011;10774;42.178;26.578;2022-09-01T03:08:19;13.70;;;7.88;;
21233;SDS011;10774;42.178;26.578;2022-09-01T03:10:46;13.40;;;7.38;;
21233;SDS011;10774;42.178;26.578;2022-09-01T03:13:13;11.95;;;7.22;;
21233;SDS011;10774;42.178;26.578;2022-09-01T03:15:40;14.48;;;7.43;;
21233;SDS011;10774;42.178;26.578;2022-09-01T03:18:06;10.57;;;7.30;;
21233;SDS011;10774;42.178;26.578;2022-09-01T03:20:34;12.50;;;7.68;;
21233;SDS011;10774;42.178;26.578;2022-09-01T03:23:05;15.60;;;7.63;;
21233;SDS011;10774;42.178;26.578;2022-09-01T03:25:34;14.98;;;7.65;;
21233;SDS011;10774;42.178;26.578;2022-09-01T03:28:01;13.85;;;8.23;;
21233;SDS011;10774;42.178;26.578;2022-09-01T03:30:28;12.50;;;8.43;;
21233;SDS011;10774;42.178;26.578;2022-09-01T03:32:56;11.55;;;8.15;;
21233;SDS011;10774;42.178;26.578;2022-09-01T03:35:23;14.45;;;8.60;;
21233;SDS011;10774;42.178;26.578;2022-09-01T03:37:50;17.05;;;9.20;;
21233;SDS011;10774;42.178;26.578;2022-09-01T03:40:16;15.52;;;9.43;;
21233;SDS011;10774;42.178;26.578;2022-09-01T03:42:42;17.15;;;9.60;;
21233;SDS011;10774;42.178;26.578;2022-09-01T03:45:09;17.85;;;10.48;;
21233;SDS011;10774;42.178;26.578;2022-09-01T03:47:40;18.05;;;10.57;;
21233;SDS011;10774;42.178;26.578;2022-09-01T03:50:08;15.52;;;10.40;;
21233;SDS011;10774;42.178;26.578;2022-09-01T03:52:46;17.02;;;10.23;;
21233;SDS011;10774;42.178;26.578;2022-09-01T03:55:16;13.15;;;10.40;;
21233;SDS011;10774;42.178;26.578;2022-09-01T03:57:48;18.33;;;10.65;;
21233;SDS011;10774;42.178;26.578;2022-09-01T04:00:15;23.38;;;10.90;;
21233;SDS011;10774;42.178;26.578;2022-09-01T04:02:46;16.90;;;10.48;;
21233;SDS011;10774;42.178;26.578;2022-09-01T04:05:17;17.05;;;10.48;;
21233;SDS011;10774;42.178;26.578;2022-09-01T04:07:45;16.98;;;9.93;;
21233;SDS011;10774;42.178;26.578;2022-09-01T04:10:12;16.27;;;11.20;;
21233;SDS011;10774;42.178;26.578;2022-09-01T04:12:39;20.85;;;11.68;;
21233;SDS011;10774;42.178;26.578;2022-09-01T04:15:05;19.77;;;12.85;;
21233;SDS011;10774;42.178;26.578;2022-09-01T04:17:32;29.23;;;14.65;;
21233;SDS011;10774;42.178;26.578;2022-09-01T04:20:16;23.08;;;12.50;;
21233;SDS011;10774;42.178;26.578;2022-09-01T04:22:44;20.98;;;13.07;;
21233;SDS011;10774;42.178;26.578;2022-09-01T04:25:11;23.08;;;15.82;;
21233;SDS011;10774;42.178;26.578;2022-09-01T04:27:38;22.10;;;12.35;;
21233;SDS011;10774;42.178;26.578;2022-09-01T04:30:05;18.00;;;12.70;;
21233;SDS011;10774;42.178;26.578;2022-09-01T04:32:35;21.45;;;10.70;;
21233;SDS011;10774;42.178;26.578;2022-09-01T04:35:02;15.13;;;9.30;;
21233;SDS011;10774;42.178;26.578;2022-09-01T04:37:28;19.95;;;9.82;;
21233;SDS011;10774;42.178;26.578;2022-09-01T04:39:54;14.65;;;9.93;;
21233;SDS011;10774;42.178;26.578;2022-09-01T04:42:21;12.57;;;8.55;;
21233;SDS011;10774;42.178;26.578;2022-09-01T04:44:51;12.65;;;8.20;;
21233;SDS011;10774;42.178;26.578;2022-09-01T04:47:18;11.85;;;8.88;;
21233;SDS011;10774;42.178;26.578;2022-09-01T04:52:21;16.50;;;9.13;;
21233;SDS011;10774;42.178;26.578;2022-09-01T04:54:47;14.52;;;9.73;;
21233;SDS011;10774;42.178;26.578;2022-09-01T04:57:13;13.77;;;9.30;;
21233;SDS011;10774;42.178;26.578;2022-09-01T04:59:40;11.57;;;9.20;;
21233;SDS011;10774;42.178;26.578;2022-09-01T05:02:06;22.23;;;11.38;;
21233;SDS011;10774;42.178;26.578;2022-09-01T05:04:33;13.40;;;9.55;;
21233;SDS011;10774;42.178;26.578;2022-09-01T05:06:59;11.82;;;9.18;;
21233;SDS011;10774;42.178;26.578;2022-09-01T05:09:27;15.73;;;9.48;;
21233;SDS011;10774;42.178;26.578;2022-09-01T05:11:53;22.13;;;12.18;;
21233;SDS011;10774;42.178;26.578;2022-09-01T05:14:20;16.80;;;10.82;;
21233;SDS011;10774;42.178;26.578;2022-09-01T05:16:47;14.82;;;10.00;;
21233;SDS011;10774;42.178;26.578;2022-09-01T05:19:13;17.52;;;9.68;;
21233;SDS011;10774;42.178;26.578;2022-09-01T05:21:41;17.92;;;9.50;;
21233;SDS011;10774;42.178;26.578;2022-09-01T05:24:13;14.70;;;8.07;;
21233;SDS011;10774;42.178;26.578;2022-09-01T05:26:41;19.42;;;8.05;;
21233;SDS011;10774;42.178;26.578;2022-09-01T05:29:08;13.95;;;8.57;;
21233;SDS011;10774;42.178;26.578;2022-09-01T05:31:42;14.40;;;8.13;;
21233;SDS011;10774;42.178;26.578;2022-09-01T05:34:09;13.68;;;7.20;;
21233;SDS011;10774;42.178;26.578;2022-09-01T05:36:37;12.70;;;6.57;;
21233;SDS011;10774;42.178;26.578;2022-09-01T05:39:06;16.08;;;9.18;;
21233;SDS011;10774;42.178;26.578;2022-09-01T05:41:33;12.15;;;6.53;;
21233;SDS011;10774;42.178;26.578;2022-09-01T05:44:00;17.25;;;8.20;;
21233;SDS011;10774;42.178;26.578;2022-09-01T05:46:31;14.48;;;7.97;;
21233;SDS011;10774;42.178;26.578;2022-09-01T05:48:56;11.82;;;6.60;;
21233;SDS011;10774;42.178;26.578;2022-09-01T05:51:23;9.93;;;6.70;;
21233;SDS011;10774;42.178;26.578;2022-09-01T05:53:52;16.60;;;6.60;;
21233;SDS011;10774;42.178;26.578;2022-09-01T05:56:23;11.60;;;6.13;;
21233;SDS011;10774;42.178;26.578;2022-09-01T05:58:50;10.50;;;6.07;;
21233;SDS011;10774;42.178;26.578;2022-09-01T06:01:21;8.05;;;5.15;;
21233;SDS011;10774;42.178;26.578;2022-09-01T06:03:50;9.35;;;5.72;;
21233;SDS011;10774;42.178;26.578;2022-09-01T06:06:22;14.77;;;5.70;;
21233;SDS011;10774;42.178;26.578;2022-09-01T06:08:49;13.60;;;5.40;;
21233;SDS011;10774;42.178;26.578;2022-09-01T06:11:15;12.40;;;5.70;;
21233;SDS011;10774;42.178;26.578;2022-09-01T06:13:45;16.75;;;5.93;;
21233;SDS011;10774;42.178;26.578;2022-09-01T06:16:14;11.48;;;5.47;;
21233;SDS011;10774;42.178;26.578;2022-09-01T06:18:39;11.32;;;5.75;;
21233;SDS011;10774;42.178;26.578;2022-09-01T06:21:07;12.02;;;5.72;;
21233;SDS011;10774;42.178;26.578;2022-09-01T06:23:36;11.68;;;5.53;;
21233;SDS011;10774;42.178;26.578;2022-09-01T06:26:02;14.77;;;5.70;;
21233;SDS011;10774;42.178;26.578;2022-09-01T06:28:28;9.32;;;5.70;;
21233;SDS011;10774;42.178;26.578;2022-09-01T06:30:54;9.60;;;5.50;;
21233;SDS011;10774;42.178;26.578;2022-09-01T06:33:21;17.23;;;5.57;;
21233;SDS011;10774;42.178;26.578;2022-09-01T06:35:49;13.05;;;5.50;;
21233;SDS011;10774;42.178;26.578;2022-09-01T06:38:17;9.95;;;5.43;;
21233;SDS011;10774;42.178;26.578;2022-09-01T06:40:43;10.43;;;5.25;;
21233;SDS011;10774;42.178;26.578;2022-09-01T06:43:09;10.38;;;5.32;;
21233;SDS011;10774;42.178;26.578;2022-09-01T06:45:40;11.32;;;6.40;;
21233;SDS011;10774;42.178;26.578;2022-09-01T06:48:08;11.07;;;5.38;;
21233;SDS011;10774;42.178;26.578;2022-09-01T06:50:39;12.68;;;5.75;;
21233;SDS011;10774;42.178;26.578;2022-09-01T06:53:05;10.63;;;5.75;;
21233;SDS011;10774;42.178;26.578;2022-09-01T06:55:40;14.57;;;5.50;;
21233;SDS011;10774;42.178;26.578;2022-09-01T06:58:08;13.65;;;6.00;;
21233;SDS011;10774;42.178;26.578;2022-09-01T07:00:38;10.25;;;5.40;;
21233;SDS011;10774;42.178;26.578;2022-09-01T07:03:12;7.32;;;5.30;;
21233;SDS011;10774;42.178;26.578;2022-09-01T07:05:39;14.88;;;7.05;;
21233;SDS011;10774;42.178;26.578;2022-09-01T07:08:06;13.88;;;5.78;;
21233;SDS011;10774;42.178;26.578;2022-09-01T07:10:38;11.27;;;5.35;;
21233;SDS011;10774;42.178;26.578;2022-09-01T07:13:09;11.23;;;5.32;;
21233;SDS011;10774;42.178;26.578;2022-09-01T07:15:44;9.93;;;5.03;;
21233;SDS011;10774;42.178;26.578;2022-09-01T07:18:13;12.30;;;5.97;;
21233;SDS011;10774;42.178;26.578;2022-09-01T07:20:45;11.77;;;5.53;;
21233;SDS011;10774;42.178;26.578;2022-09-01T07:23:13;6.78;;;4.85;;
21233;SDS011;10774;42.178;26.578;2022-09-01T07:25:42;12.88;;;5.80;;
21233;SDS011;10774;42.178;26.578;2022-09-01T07:28:09;8.90;;;5.10;;
21233;SDS011;10774;42.178;26.578;2022-09-01T07:30:56;8.45;;;4.68;;
21233;SDS011;10774;42.178;26.578;2022-09-01T07:33:22;12.07;;;5.13;;
21233;SDS011;10774;42.178;26.578;2022-09-01T07:35:49;9.45;;;5.30;;
21233;SDS011;10774;42.178;26.578;2022-09-01T07:38:18;11.57;;;5.07;;
21233;SDS011;10774;42.178;26.578;2022-09-01T07:40:44;9.90;;;5.20;;
21233;SDS011;10774;42.178;26.578;2022-09-01T07:43:14;10.55;;;5.53;;
21233;SDS011;10774;42.178;26.578;2022-09-01T07:45:44;10.57;;;4.97;;
21233;SDS011;10774;42.178;26.578;2022-09-01T07:48:11;9.95;;;5.25;;
21233;SDS011;10774;42.178;26.578;2022-09-01T07:50:40;16.70;;;5.38;;
21233;SDS011;10774;42.178;26.578;2022-09-01T07:53:11;8.75;;;5.43;;
21233;SDS011;10774;42.178;26.578;2022-09-01T07:55:47;7.30;;;4.75;;
21233;SDS011;10774;42.178;26.578;2022-09-01T07:58:16;10.93;;;4.70;;
21233;SDS011;10774;42.178;26.578;2022-09-01T08:00:44;9.13;;;5.32;;
21233;SDS011;10774;42.178;26.578;2022-09-01T08:03:14;8.45;;;5.13;;
21233;SDS011;10774;42.178;26.578;2022-09-01T08:05:41;9.70;;;5.30;;
21233;SDS011;10774;42.178;26.578;2022-09-01T08:08:07;8.40;;;5.00;;
21233;SDS011;10774;42.178;26.578;2022-09-01T08:10:33;10.82;;;4.88;;
21233;SDS011;10774;42.178;26.578;2022-09-01T08:13:02;9.38;;;5.22;;
21233;SDS011;10774;42.178;26.578;2022-09-01T08:15:27;12.52;;;5.53;;
21233;SDS011;10774;42.178;26.578;2022-09-01T08:17:53;12.38;;;5.05;;
21233;SDS011;10774;42.178;26.578;2022-09-01T08:20:18;9.65;;;4.72;;
21233;SDS011;10774;42.178;26.578;2022-09-01T08:22:44;8.98;;;4.90;;
21233;SDS011;10774;42.178;26.578;2022-09-01T08:25:09;14.20;;;5.10;;
21233;SDS011;10774;42.178;26.578;2022-09-01T08:27:35;14.80;;;5.03;;
21233;SDS011;10774;42.178;26.578;2022-09-01T08:30:06;12.98;;;4.75;;
21233;SDS011;10774;42.178;26.578;2022-09-01T08:32:35;13.30;;;5.00;;
21233;SDS011;10774;42.178;26.578;2022-09-01T08:35:02;11.95;;;5.60;;
21233;SDS011;10774;42.178;26.578;2022-09-01T08:37:28;12.95;;;5.10;;
21233;SDS011;10774;42.178;26.578;2022-09-01T08:39:54;14.45;;;4.80;;
21233;SDS011;10774;42.178;26.578;2022-09-01T08:45:24;9.25;;;4.65;;
21233;SDS011;10774;42.178;26.578;2022-09-01T08:47:56;10.57;;;5.65;;
21233;SDS011;10774;42.178;26.578;2022-09-01T08:50:31;9.07;;;4.50;;
21233;SDS011;10774;42.178;26.578;2022-09-01T08:53:10;10.40;;;4.20;;
21233;SDS011;10774;42.178;26.578;2022-09-01T08:55:46;7.13;;;4.07;;
21233;SDS011;10774;42.178;26.578;2022-09-01T08:58:17;9.07;;;3.92;;
21233;SDS011;10774;42.178;26.578;2022-09-01T09:00:44;9.95;;;4.00;;
21233;SDS011;10774;42.178;26.578;2022-09-01T09:14:10;14.98;;;4.40;;
21233;SDS011;10774;42.178;26.578;2022-09-01T09:19:14;6.70;;;3.72;;
21233;SDS011;10774;42.178;26.578;2022-09-01T09:21:46;13.90;;;4.30;;
21233;SDS011;10774;42.178;26.578;2022-09-01T09:27:33;9.27;;;3.97;;
21233;SDS011;10774;42.178;26.578;2022-09-01T09:30:05;7.72;;;3.35;;
21233;SDS011;10774;42.178;26.578;2022-09-01T09:37:48;7.18;;;3.88;;
21233;SDS011;10774;42.178;26.578;2022-09-01T09:45:24;7.63;;;3.33;;
21233;SDS011;10774;42.178;26.578;2022-09-01T09:47:57;5.47;;;3.33;;
21233;SDS011;10774;42.178;26.578;2022-09-01T09:50:25;8.27;;;3.72;;
21233;SDS011;10774;42.178;26.578;2022-09-01T09:53:08;7.80;;;3.67;;
21233;SDS011;10774;42.178;26.578;2022-09-01T09:55:36;9.20;;;3.75;;
21233;SDS011;10774;42.178;26.578;2022-09-01T09:58:18;8.57;;;3.85;;
21233;SDS011;10774;42.178;26.578;2022-09-01T10:01:07;11.70;;;4.30;;
21233;SDS011;10774;42.178;26.578;2022-09-01T10:06:11;10.60;;;4.55;;
21233;SDS011;10774;42.178;26.578;2022-09-01T10:08:41;7.70;;;4.05;;
21233;SDS011;10774;42.178;26.578;2022-09-01T10:11:57;10.43;;;4.18;;
21233;SDS011;10774;42.178;26.578;2022-09-01T10:14:22;7.70;;;3.78;;
21233;SDS011;10774;42.178;26.578;2022-09-01T10:16:57;8.93;;;3.72;;
21233;SDS011;10774;42.178;26.578;2022-09-01T10:19:27;11.65;;;3.85;;
21233;SDS011;10774;42.178;26.578;2022-09-01T10:21:54;8.63;;;3.72;;
21233;SDS011;10774;42.178;26.578;2022-09-01T10:24:31;12.70;;;3.92;;
21233;SDS011;10774;42.178;26.578;2022-09-01T10:27:00;10.68;;;3.78;;
21233;SDS011;10774;42.178;26.578;2022-09-01T10:29:30;7.07;;;3.55;;
21233;SDS011;10774;42.178;26.578;2022-09-01T10:32:01;10.77;;;3.38;;
21233;SDS011;10774;42.178;26.578;2022-09-01T10:34:32;8.52;;;3.60;;
21233;SDS011;10774;42.178;26.578;2022-09-01T10:37:01;5.78;;;3.30;;
21233;SDS011;10774;42.178;26.578;2022-09-01T10:39:26;10.30;;;4.00;;
21233;SDS011;10774;42.178;26.578;2022-09-01T10:41:55;10.02;;;3.85;;
21233;SDS011;10774;42.178;26.578;2022-09-01T10:44:24;9.57;;;3.72;;
21233;SDS011;10774;42.178;26.578;2022-09-01T10:46:55;10.13;;;4.70;;
21233;SDS011;10774;42.178;26.578;2022-09-01T10:51:54;10.48;;;3.53;;
21233;SDS011;10774;42.178;26.578;2022-09-01T10:57:27;9.57;;;4.07;;
21233;SDS011;10774;42.178;26.578;2022-09-01T11:03:14;12.13;;;5.45;;
21233;SDS011;10774;42.178;26.578;2022-09-01T11:11:03;7.38;;;3.90;;
21233;SDS011;10774;42.178;26.578;2022-09-01T11:13:55;9.90;;;3.72;;
21233;SDS011;10774;42.178;26.578;2022-09-01T11:19:34;8.38;;;3.70;;
21233;SDS011;10774;42.178;26.578;2022-09-01T11:22:03;7.82;;;3.30;;
21233;SDS011;10774;42.178;26.578;2022-09-01T11:27:04;11.82;;;3.72;;
21233;SDS011;10774;42.178;26.578;2022-09-01T11:32:21;5.88;;;3.22;;
21233;SDS011;10774;42.178;26.578;2022-09-01T11:34:51;11.68;;;3.70;;
21233;SDS011;10774;42.178;26.578;2022-09-01T11:37:21;6.97;;;3.10;;
21233;SDS011;10774;42.178;26.578;2022-09-01T11:39:49;8.52;;;3.50;;
21233;SDS011;10774;42.178;26.578;2022-09-01T11:47:51;6.55;;;3.28;;
21233;SDS011;10774;42.178;26.578;2022-09-01T11:50:31;8.48;;;3.78;;
21233;SDS011;10774;42.178;26.578;2022-09-01T11:57:58;12.00;;;3.80;;
21233;SDS011;10774;42.178;26.578;2022-09-01T12:00:31;7.03;;;3.65;;
21233;SDS011;10774;42.178;26.578;2022-09-01T12:03:02;5.93;;;3.80;;
21233;SDS011;10774;42.178;26.578;2022-09-01T12:05:42;9.30;;;3.65;;
21233;SDS011;10774;42.178;26.578;2022-09-01T12:08:14;9.60;;;3.47;;
21233;SDS011;10774;42.178;26.578;2022-09-01T12:10:44;8.52;;;3.70;;
21233;SDS011;10774;42.178;26.578;2022-09-01T12:13:11;8.60;;;3.53;;
21233;SDS011;10774;42.178;26.578;2022-09-01T12:15:51;10.32;;;3.85;;
21233;SDS011;10774;42.178;26.578;2022-09-01T12:18:21;10.38;;;3.72;;
21233;SDS011;10774;42.178;26.578;2022-09-01T12:20:52;10.02;;;3.28;;
21233;SDS011;10774;42.178;26.578;2022-09-01T12:25:52;9.20;;;4.30;;
21233;SDS011;10774;42.178;26.578;2022-09-01T12:28:20;9.45;;;3.90;;
21233;SDS011;10774;42.178;26.578;2022-09-01T12:30:49;9.63;;;4.03;;
21233;SDS011;10774;42.178;26.578;2022-09-01T12:33:16;9.93;;;4.10;;
21233;SDS011;10774;42.178;26.578;2022-09-01T12:35:44;6.47;;;3.80;;
21233;SDS011;10774;42.178;26.578;2022-09-01T12:40:50;10.48;;;4.10;;
21233;SDS011;10774;42.178;26.578;2022-09-01T12:48:30;15.27;;;4.45;;
21233;SDS011;10774;42.178;26.578;2022-09-01T12:50:57;12.13;;;3.70;;
21233;SDS011;10774;42.178;26.578;2022-09-01T12:53:26;8.77;;;3.72;;
21233;SDS011;10774;42.178;26.578;2022-09-01T12:55:58;8.20;;;3.72;;
21233;SDS011;10774;42.178;26.578;2022-09-01T12:58:30;8.82;;;4.38;;
21233;SDS011;10774;42.178;26.578;2022-09-01T13:01:03;10.32;;;4.15;;
21233;SDS011;10774;42.178;26.578;2022-09-01T13:03:38;11.73;;;3.67;;
21233;SDS011;10774;42.178;26.578;2022-09-01T13:06:04;9.90;;;3.72;;
21233;SDS011;10774;42.178;26.578;2022-09-01T13:08:31;9.00;;;3.65;;
21233;SDS011;10774;42.178;26.578;2022-09-01T13:11:00;12.10;;;3.53;;
21233;SDS011;10774;42.178;26.578;2022-09-01T13:13:27;12.32;;;3.95;;
21233;SDS011;10774;42.178;26.578;2022-09-01T13:15:54;9.10;;;4.20;;
21233;SDS011;10774;42.178;26.578;2022-09-01T13:18:24;6.00;;;3.67;;
21233;SDS011;10774;42.178;26.578;2022-09-01T13:20:50;10.57;;;4.00;;
21233;SDS011;10774;42.178;26.578;2022-09-01T13:23:17;9.45;;;3.75;;
21233;SDS011;10774;42.178;26.578;2022-09-01T13:25:43;8.25;;;4.18;;
21233;SDS011;10774;42.178;26.578;2022-09-01T13:28:10;12.10;;;3.90;;
21233;SDS011;10774;42.178;26.578;2022-09-01T13:30:37;11.88;;;4.43;;
21233;SDS011;10774;42.178;26.578;2022-09-01T13:33:03;12.20;;;3.70;;
21233;SDS011;10774;42.178;26.578;2022-09-01T13:35:28;10.10;;;4.20;;
21233;SDS011;10774;42.178;26.578;2022-09-01T13:37:54;11.18;;;3.88;;
21233;SDS011;10774;42.178;26.578;2022-09-01T13:40:20;12.98;;;4.13;;
21233;SDS011;10774;42.178;26.578;2022-09-01T13:42:47;9.73;;;3.50;;
21233;SDS011;10774;42.178;26.578;2022-09-01T13:45:14;9.82;;;4.25;;
21233;SDS011;10774;42.178;26.578;2022-09-01T13:47:43;9.93;;;3.38;;
21233;SDS011;10774;42.178;26.578;2022-09-01T13:50:11;9.80;;;4.03;;
21233;SDS011;10774;42.178;26.578;2022-09-01T13:52:40;7.95;;;3.40;;
21233;SDS011;10774;42.178;26.578;2022-09-01T13:55:08;12.32;;;3.90;;
21233;SDS011;10774;42.178;26.578;2022-09-01T13:57:36;10.10;;;4.15;;
21233;SDS011;10774;42.178;26.578;2022-09-01T14:00:06;8.35;;;3.80;;
21233;SDS011;10774;42.178;26.578;2022-09-01T14:02:35;9.50;;;3.65;;
21233;SDS011;10774;42.178;26.578;2022-09-01T14:05:01;10.85;;;4.43;;
21233;SDS011;10774;42.178;26.578;2022-09-01T14:07:27;13.90;;;4.97;;
21233;SDS011;10774;42.178;26.578;2022-09-01T14:09:54;12.80;;;4.50;;
21233;SDS011;10774;42.178;26.578;2022-09-01T14:12:20;13.07;;;4.10;;
21233;SDS011;10774;42.178;26.578;2022-09-01T14:14:45;12.55;;;3.35;;
21233;SDS011;10774;42.178;26.578;2022-09-01T14:17:11;6.75;;;4.35;;
21233;SDS011;10774;42.178;26.578;2022-09-01T14:19:36;12.00;;;6.10;;
21233;SDS011;10774;42.178;26.578;2022-09-01T14:22:02;10.70;;;4.22;;
21233;SDS011;10774;42.178;26.578;2022-09-01T14:24:30;8.45;;;4.55;;
21233;SDS011;10774;42.178;26.578;2022-09-01T14:26:58;15.88;;;8.00;;
21233;SDS011;10774;42.178;26.578;2022-09-01T14:29:23;7.50;;;4.53;;
21233;SDS011;10774;42.178;26.578;2022-09-01T14:31:49;11.15;;;4.35;;
21233;SDS011;10774;42.178;26.578;2022-09-01T14:34:15;7.68;;;4.03;;
21233;SDS011;10774;42.178;26.578;2022-09-01T14:36:41;7.32;;;4.13;;
21233;SDS011;10774;42.178;26.578;2022-09-01T14:39:07;9.70;;;5.93;;
21233;SDS011;10774;42.178;26.578;2022-09-01T14:41:33;17.48;;;12.18;;
21233;SDS011;10774;42.178;26.578;2022-09-01T14:43:58;10.63;;;4.90;;
21233;SDS011;10774;42.178;26.578;2022-09-01T14:46:26;8.48;;;4.05;;
21233;SDS011;10774;42.178;26.578;2022-09-01T14:48:54;10.77;;;4.50;;
21233;SDS011;10774;42.178;26.578;2022-09-01T14:51:24;10.77;;;4.63;;
21233;SDS011;10774;42.178;26.578;2022-09-01T14:53:52;13.57;;;4.50;;
21233;SDS011;10774;42.178;26.578;2022-09-01T14:56:19;12.95;;;6.25;;
21233;SDS011;10774;42.178;26.578;2022-09-01T14:58:45;21.50;;;15.73;;
21233;SDS011;10774;42.178;26.578;2022-09-01T15:01:12;9.30;;;4.80;;
21233;SDS011;10774;42.178;26.578;2022-09-01T15:03:39;9.73;;;4.75;;
21233;SDS011;10774;42.178;26.578;2022-09-01T15:06:06;7.25;;;4.57;;
21233;SDS011;10774;42.178;26.578;2022-09-01T15:08:32;11.25;;;4.25;;
21233;SDS011;10774;42.178;26.578;2022-09-01T15:10:57;8.80;;;4.82;;
21233;SDS011;10774;42.178;26.578;2022-09-01T15:13:25;10.68;;;5.40;;
21233;SDS011;10774;42.178;26.578;2022-09-01T15:15:51;10.02;;;4.35;;
21233;SDS011;10774;42.178;26.578;2022-09-01T15:18:17;10.80;;;4.22;;
21233;SDS011;10774;42.178;26.578;2022-09-01T15:20:42;10.20;;;4.15;;
21233;SDS011;10774;42.178;26.578;2022-09-01T15:23:15;7.65;;;3.78;;
21233;SDS011;10774;42.178;26.578;2022-09-01T15:25:45;10.32;;;3.90;;
21233;SDS011;10774;42.178;26.578;2022-09-01T15:28:12;9.23;;;4.25;;
21233;SDS011;10774;42.178;26.578;2022-09-01T15:30:38;9.43;;;4.30;;
21233;SDS011;10774;42.178;26.578;2022-09-01T15:33:04;16.73;;;10.95;;
21233;SDS011;10774;42.178;26.578;2022-09-01T15:35:30;12.70;;;7.75;;
21233;SDS011;10774;42.178;26.578;2022-09-01T15:37:56;12.15;;;4.13;;
21233;SDS011;10774;42.178;26.578;2022-09-01T15:40:22;10.20;;;4.55;;
21233;SDS011;10774;42.178;26.578;2022-09-01T15:42:48;9.80;;;4.55;;
21233;SDS011;10774;42.178;26.578;2022-09-01T15:45:16;10.88;;;5.97;;
21233;SDS011;10774;42.178;26.578;2022-09-01T15:47:44;11.55;;;4.75;;
21233;SDS011;10774;42.178;26.578;2022-09-01T15:50:12;6.30;;;3.67;;
21233;SDS011;10774;42.178;26.578;2022-09-01T15:52:59;7.45;;;4.45;;
21233;SDS011;10774;42.178;26.578;2022-09-01T15:55:27;8.07;;;4.45;;